Saint Joseph, Missouri
Current Conditions -  °F | °C
As of 5:53 PM on Tuesday 25 Nov 2014 (Local Time) from KSTJ Reporting Station
Clear Clear  
Wind Chill: 28°   Ceiling: Unl
Heat Index: 35°   Visibility: 10mi
Dew Point: 19°   Wind: 9mph
Humidity: 52%   Direction: 160°SSE
Pressure: 30.06"   Gusts: NA
Location:  39.76°N, 94.82°W
Report Text: KSTJ 252353Z AUTO 16008KT 10SM CLR 02/M07 A3006 RMK AO2 SLP189 T00171072 10056 20011 57010
Loading
Personal Weather Stations






























Interactive Weather Map New forecast layout! Learn more

10-Day Weather Forecast

Advertisements
Track Severe Weather on mobile